sensor_id;sensor_type;location;lat;lon;timestamp;temperature;humidity
18884;DHT22;9574;47.282;9.640;2023-01-08T00:01:04;3.50;99.90
18884;DHT22;9574;47.282;9.640;2023-01-08T00:03:32;3.50;99.90
18884;DHT22;9574;47.282;9.640;2023-01-08T00:06:02;3.50;99.90
18884;DHT22;9574;47.282;9.640;2023-01-08T00:08:30;3.50;99.90
18884;DHT22;9574;47.282;9.640;2023-01-08T00:10:58;3.40;99.90
18884;DHT22;9574;47.282;9.640;2023-01-08T00:13:26;3.40;99.90
18884;DHT22;9574;47.282;9.640;2023-01-08T00:15:54;3.40;99.90
18884;DHT22;9574;47.282;9.640;2023-01-08T00:18:21;3.50;99.90
18884;DHT22;9574;47.282;9.640;2023-01-08T00:20:48;3.70;99.90
18884;DHT22;9574;47.282;9.640;2023-01-08T00:23:17;3.80;99.90
18884;DHT22;9574;47.282;9.640;2023-01-08T00:25:45;3.90;99.90
18884;DHT22;9574;47.282;9.640;2023-01-08T00:28:12;3.90;99.90
18884;DHT22;9574;47.282;9.640;2023-01-08T00:30:40;3.90;99.90
18884;DHT22;9574;47.282;9.640;2023-01-08T00:33:09;3.90;99.90
18884;DHT22;9574;47.282;9.640;2023-01-08T00:35:37;3.90;99.90
18884;DHT22;9574;47.282;9.640;2023-01-08T00:38:04;4.10;99.90
18884;DHT22;9574;47.282;9.640;2023-01-08T00:40:32;4.30;99.90
18884;DHT22;9574;47.282;9.640;2023-01-08T00:42:59;4.60;99.90
18884;DHT22;9574;47.282;9.640;2023-01-08T00:45:26;4.60;99.90
18884;DHT22;9574;47.282;9.640;2023-01-08T00:47:53;4.80;99.90
18884;DHT22;9574;47.282;9.640;2023-01-08T00:50:21;4.80;99.90
18884;DHT22;9574;47.282;9.640;2023-01-08T00:52:48;5.00;99.90
18884;DHT22;9574;47.282;9.640;2023-01-08T00:55:15;5.00;99.90
18884;DHT22;9574;47.282;9.640;2023-01-08T00:57:42;5.00;99.90
18884;DHT22;9574;47.282;9.640;2023-01-08T01:00:12;5.00;99.90
18884;DHT22;9574;47.282;9.640;2023-01-08T01:02:40;4.90;99.90
18884;DHT22;9574;47.282;9.640;2023-01-08T01:05:07;4.80;99.90
18884;DHT22;9574;47.282;9.640;2023-01-08T01:07:36;4.60;99.90
18884;DHT22;9574;47.282;9.640;2023-01-08T01:10:04;4.40;99.90
18884;DHT22;9574;47.282;9.640;2023-01-08T01:12:31;4.30;99.90
18884;DHT22;9574;47.282;9.640;2023-01-08T01:14:58;4.10;99.90
18884;DHT22;9574;47.282;9.640;2023-01-08T01:17:25;4.10;99.90
18884;DHT22;9574;47.282;9.640;2023-01-08T01:19:52;4.20;99.90
18884;DHT22;9574;47.282;9.640;2023-01-08T01:22:19;4.20;99.90
18884;DHT22;9574;47.282;9.640;2023-01-08T01:24:47;4.20;99.90
18884;DHT22;9574;47.282;9.640;2023-01-08T01:27:14;4.20;99.90
18884;DHT22;9574;47.282;9.640;2023-01-08T01:29:41;4.20;99.90
18884;DHT22;9574;47.282;9.640;2023-01-08T01:32:08;4.30;99.90
18884;DHT22;9574;47.282;9.640;2023-01-08T01:34:35;4.40;99.90
18884;DHT22;9574;47.282;9.640;2023-01-08T01:37:02;4.60;99.90
18884;DHT22;9574;47.282;9.640;2023-01-08T01:39:29;4.70;99.90
18884;DHT22;9574;47.282;9.640;2023-01-08T01:41:58;4.70;99.90
18884;DHT22;9574;47.282;9.640;2023-01-08T01:44:39;4.60;99.90
18884;DHT22;9574;47.282;9.640;2023-01-08T01:47:12;4.40;99.90
18884;DHT22;9574;47.282;9.640;2023-01-08T01:49:43;4.20;99.90
18884;DHT22;9574;47.282;9.640;2023-01-08T01:52:13;4.00;99.90
18884;DHT22;9574;47.282;9.640;2023-01-08T01:54:40;3.90;99.90
18884;DHT22;9574;47.282;9.640;2023-01-08T01:57:09;4.10;99.90
18884;DHT22;9574;47.282;9.640;2023-01-08T01:59:36;4.20;99.90
18884;DHT22;9574;47.282;9.640;2023-01-08T02:02:03;3.90;99.90
18884;DHT22;9574;47.282;9.640;2023-01-08T02:04:30;3.70;99.90
18884;DHT22;9574;47.282;9.640;2023-01-08T02:07:03;3.60;99.90
18884;DHT22;9574;47.282;9.640;2023-01-08T02:09:40;3.60;99.90
18884;DHT22;9574;47.282;9.640;2023-01-08T02:12:14;4.00;99.90
18884;DHT22;9574;47.282;9.640;2023-01-08T02:14:58;4.10;99.90
18884;DHT22;9574;47.282;9.640;2023-01-08T02:17:32;3.80;99.90
18884;DHT22;9574;47.282;9.640;2023-01-08T02:20:05;3.80;99.90
18884;DHT22;9574;47.282;9.640;2023-01-08T02:22:43;3.80;99.90
18884;DHT22;9574;47.282;9.640;2023-01-08T02:25:18;3.90;99.90
18884;DHT22;9574;47.282;9.640;2023-01-08T02:27:50;4.00;99.90
18884;DHT22;9574;47.282;9.640;2023-01-08T02:30:19;3.90;99.90
18884;DHT22;9574;47.282;9.640;2023-01-08T02:32:46;3.50;99.90
18884;DHT22;9574;47.282;9.640;2023-01-08T02:35:13;3.50;99.90
18884;DHT22;9574;47.282;9.640;2023-01-08T02:37:41;3.60;99.90
18884;DHT22;9574;47.282;9.640;2023-01-08T02:40:20;3.40;99.90
18884;DHT22;9574;47.282;9.640;2023-01-08T02:42:55;3.10;99.90
18884;DHT22;9574;47.282;9.640;2023-01-08T02:45:30;2.90;99.90
18884;DHT22;9574;47.282;9.640;2023-01-08T02:48:05;2.80;99.90
18884;DHT22;9574;47.282;9.640;2023-01-08T02:50:36;2.70;99.90
18884;DHT22;9574;47.282;9.640;2023-01-08T02:53:10;2.70;99.90
18884;DHT22;9574;47.282;9.640;2023-01-08T02:55:40;3.10;99.90
18884;DHT22;9574;47.282;9.640;2023-01-08T02:58:09;3.30;99.90
18884;DHT22;9574;47.282;9.640;2023-01-08T03:00:38;3.20;99.90
18884;DHT22;9574;47.282;9.640;2023-01-08T03:03:09;3.10;99.90
18884;DHT22;9574;47.282;9.640;2023-01-08T03:05:39;3.00;99.90
18884;DHT22;9574;47.282;9.640;2023-01-08T03:08:07;3.20;99.90
18884;DHT22;9574;47.282;9.640;2023-01-08T03:10:37;3.50;99.90
18884;DHT22;9574;47.282;9.640;2023-01-08T03:13:09;3.50;99.90
18884;DHT22;9574;47.282;9.640;2023-01-08T03:15:41;3.60;99.90
18884;DHT22;9574;47.282;9.640;2023-01-08T03:18:14;3.60;99.90
18884;DHT22;9574;47.282;9.640;2023-01-08T03:20:45;3.60;99.90
18884;DHT22;9574;47.282;9.640;2023-01-08T03:23:14;3.50;99.90
18884;DHT22;9574;47.282;9.640;2023-01-08T03:25:45;3.30;99.90
18884;DHT22;9574;47.282;9.640;2023-01-08T03:28:18;3.20;99.90
18884;DHT22;9574;47.282;9.640;2023-01-08T03:30:46;3.00;99.90
18884;DHT22;9574;47.282;9.640;2023-01-08T03:33:15;2.90;99.90
18884;DHT22;9574;47.282;9.640;2023-01-08T03:35:45;2.80;99.90
18884;DHT22;9574;47.282;9.640;2023-01-08T03:38:16;2.70;99.90
18884;DHT22;9574;47.282;9.640;2023-01-08T03:40:47;2.70;99.90
18884;DHT22;9574;47.282;9.640;2023-01-08T03:43:16;2.60;99.90
18884;DHT22;9574;47.282;9.640;2023-01-08T03:45:47;2.50;99.90
18884;DHT22;9574;47.282;9.640;2023-01-08T03:48:16;2.60;99.90
18884;DHT22;9574;47.282;9.640;2023-01-08T03:50:44;2.80;99.90
18884;DHT22;9574;47.282;9.640;2023-01-08T03:53:11;3.10;99.90
18884;DHT22;9574;47.282;9.640;2023-01-08T03:55:38;3.30;99.90
18884;DHT22;9574;47.282;9.640;2023-01-08T03:58:05;3.30;99.90
18884;DHT22;9574;47.282;9.640;2023-01-08T04:00:33;3.30;99.90
18884;DHT22;9574;47.282;9.640;2023-01-08T04:03:01;3.20;99.90
18884;DHT22;9574;47.282;9.640;2023-01-08T04:05:28;3.30;99.90
18884;DHT22;9574;47.282;9.640;2023-01-08T04:07:55;3.50;99.90
18884;DHT22;9574;47.282;9.640;2023-01-08T04:10:22;3.60;99.90
18884;DHT22;9574;47.282;9.640;2023-01-08T04:12:49;3.60;99.90
18884;DHT22;9574;47.282;9.640;2023-01-08T04:15:16;3.60;99.90
18884;DHT22;9574;47.282;9.640;2023-01-08T04:17:45;3.50;99.90
18884;DHT22;9574;47.282;9.640;2023-01-08T04:20:12;3.50;99.90
18884;DHT22;9574;47.282;9.640;2023-01-08T04:22:39;3.50;99.90
18884;DHT22;9574;47.282;9.640;2023-01-08T04:25:07;3.70;99.90
18884;DHT22;9574;47.282;9.640;2023-01-08T04:27:34;3.80;99.90
18884;DHT22;9574;47.282;9.640;2023-01-08T04:30:01;3.70;99.90
18884;DHT22;9574;47.282;9.640;2023-01-08T04:32:28;3.70;99.90
18884;DHT22;9574;47.282;9.640;2023-01-08T04:34:56;3.80;99.90
18884;DHT22;9574;47.282;9.640;2023-01-08T04:37:23;3.90;99.90
18884;DHT22;9574;47.282;9.640;2023-01-08T04:39:50;3.90;99.90
18884;DHT22;9574;47.282;9.640;2023-01-08T04:42:17;3.90;99.90
18884;DHT22;9574;47.282;9.640;2023-01-08T04:44:44;3.90;99.90
18884;DHT22;9574;47.282;9.640;2023-01-08T04:47:11;3.90;99.90
18884;DHT22;9574;47.282;9.640;2023-01-08T04:49:38;4.10;99.90
18884;DHT22;9574;47.282;9.640;2023-01-08T04:52:06;4.10;99.90
18884;DHT22;9574;47.282;9.640;2023-01-08T04:54:33;4.00;99.90
18884;DHT22;9574;47.282;9.640;2023-01-08T04:57:00;3.90;99.90
18884;DHT22;9574;47.282;9.640;2023-01-08T04:59:27;3.80;99.90
18884;DHT22;9574;47.282;9.640;2023-01-08T05:01:54;3.70;99.90
18884;DHT22;9574;47.282;9.640;2023-01-08T05:04:21;3.70;99.90
18884;DHT22;9574;47.282;9.640;2023-01-08T05:06:48;3.60;99.90
18884;DHT22;9574;47.282;9.640;2023-01-08T05:09:17;3.70;99.90
18884;DHT22;9574;47.282;9.640;2023-01-08T05:11:44;3.70;99.90
18884;DHT22;9574;47.282;9.640;2023-01-08T05:14:11;3.80;99.90
18884;DHT22;9574;47.282;9.640;2023-01-08T05:16:38;3.90;99.90
18884;DHT22;9574;47.282;9.640;2023-01-08T05:19:05;4.10;99.90
18884;DHT22;9574;47.282;9.640;2023-01-08T05:21:32;4.20;99.90
18884;DHT22;9574;47.282;9.640;2023-01-08T05:23:59;4.30;99.90
18884;DHT22;9574;47.282;9.640;2023-01-08T05:26:27;4.50;99.90
18884;DHT22;9574;47.282;9.640;2023-01-08T05:28:54;4.60;99.90
18884;DHT22;9574;47.282;9.640;2023-01-08T05:31:21;4.50;99.90
18884;DHT22;9574;47.282;9.640;2023-01-08T05:33:48;4.50;99.90
18884;DHT22;9574;47.282;9.640;2023-01-08T05:36:16;4.60;99.90
18884;DHT22;9574;47.282;9.640;2023-01-08T05:38:43;4.70;99.90
18884;DHT22;9574;47.282;9.640;2023-01-08T05:41:10;4.70;99.90
18884;DHT22;9574;47.282;9.640;2023-01-08T05:43:38;4.80;99.90
18884;DHT22;9574;47.282;9.640;2023-01-08T05:46:05;4.90;99.90
18884;DHT22;9574;47.282;9.640;2023-01-08T05:48:33;4.90;99.90
18884;DHT22;9574;47.282;9.640;2023-01-08T05:51:02;4.60;99.90
18884;DHT22;9574;47.282;9.640;2023-01-08T05:53:29;4.20;99.90
18884;DHT22;9574;47.282;9.640;2023-01-08T05:55:58;4.00;99.90
18884;DHT22;9574;47.282;9.640;2023-01-08T05:58:25;3.80;99.90
18884;DHT22;9574;47.282;9.640;2023-01-08T06:00:54;3.90;99.90
18884;DHT22;9574;47.282;9.640;2023-01-08T06:03:26;4.10;99.90
18884;DHT22;9574;47.282;9.640;2023-01-08T06:05:57;4.00;99.90
18884;DHT22;9574;47.282;9.640;2023-01-08T06:08:24;3.90;99.90
18884;DHT22;9574;47.282;9.640;2023-01-08T06:10:51;4.00;99.90
18884;DHT22;9574;47.282;9.640;2023-01-08T06:13:18;4.20;99.90
18884;DHT22;9574;47.282;9.640;2023-01-08T06:15:45;4.00;99.90
18884;DHT22;9574;47.282;9.640;2023-01-08T06:18:13;3.80;99.90
18884;DHT22;9574;47.282;9.640;2023-01-08T06:20:40;3.90;99.90
18884;DHT22;9574;47.282;9.640;2023-01-08T06:23:07;3.80;99.90
18884;DHT22;9574;47.282;9.640;2023-01-08T06:25:34;4.10;99.90
18884;DHT22;9574;47.282;9.640;2023-01-08T06:28:01;4.00;99.90
18884;DHT22;9574;47.282;9.640;2023-01-08T06:30:28;4.20;99.90
18884;DHT22;9574;47.282;9.640;2023-01-08T06:32:55;4.10;99.90
18884;DHT22;9574;47.282;9.640;2023-01-08T06:35:24;4.00;99.90
18884;DHT22;9574;47.282;9.640;2023-01-08T06:37:53;4.10;99.90
18884;DHT22;9574;47.282;9.640;2023-01-08T06:40:20;4.10;99.90
18884;DHT22;9574;47.282;9.640;2023-01-08T06:42:47;4.20;99.90
18884;DHT22;9574;47.282;9.640;2023-01-08T06:45:15;3.90;99.90
18884;DHT22;9574;47.282;9.640;2023-01-08T06:47:42;3.60;99.90
18884;DHT22;9574;47.282;9.640;2023-01-08T06:50:09;3.30;99.90
18884;DHT22;9574;47.282;9.640;2023-01-08T06:52:38;3.20;99.90
18884;DHT22;9574;47.282;9.640;2023-01-08T06:55:06;3.20;99.90
18884;DHT22;9574;47.282;9.640;2023-01-08T06:57:33;3.20;99.90
18884;DHT22;9574;47.282;9.640;2023-01-08T07:00:00;3.30;99.90
18884;DHT22;9574;47.282;9.640;2023-01-08T07:02:27;3.10;99.90
18884;DHT22;9574;47.282;9.640;2023-01-08T07:04:54;3.10;99.90
18884;DHT22;9574;47.282;9.640;2023-01-08T07:07:21;2.90;99.90
18884;DHT22;9574;47.282;9.640;2023-01-08T07:09:49;2.90;99.90
18884;DHT22;9574;47.282;9.640;2023-01-08T07:12:16;2.90;99.90
18884;DHT22;9574;47.282;9.640;2023-01-08T07:14:43;2.90;99.90
18884;DHT22;9574;47.282;9.640;2023-01-08T07:17:10;2.80;99.90
18884;DHT22;9574;47.282;9.640;2023-01-08T07:19:37;2.80;99.90
18884;DHT22;9574;47.282;9.640;2023-01-08T07:22:04;2.80;99.90
18884;DHT22;9574;47.282;9.640;2023-01-08T07:24:31;2.80;99.90
18884;DHT22;9574;47.282;9.640;2023-01-08T07:26:59;2.80;99.90
18884;DHT22;9574;47.282;9.640;2023-01-08T07:29:26;2.90;99.90
18884;DHT22;9574;47.282;9.640;2023-01-08T07:31:53;3.20;99.90
18884;DHT22;9574;47.282;9.640;2023-01-08T07:34:20;3.50;99.90
18884;DHT22;9574;47.282;9.640;2023-01-08T07:36:47;3.60;99.90
18884;DHT22;9574;47.282;9.640;2023-01-08T07:39:14;3.50;99.90
18884;DHT22;9574;47.282;9.640;2023-01-08T07:41:41;3.50;99.90
18884;DHT22;9574;47.282;9.640;2023-01-08T07:44:10;3.50;99.90
18884;DHT22;9574;47.282;9.640;2023-01-08T07:46:38;3.80;99.90
18884;DHT22;9574;47.282;9.640;2023-01-08T07:49:05;3.90;99.90
18884;DHT22;9574;47.282;9.640;2023-01-08T07:51:32;3.60;99.90
18884;DHT22;9574;47.282;9.640;2023-01-08T07:53:59;3.40;99.90
18884;DHT22;9574;47.282;9.640;2023-01-08T07:56:26;3.30;99.90
18884;DHT22;9574;47.282;9.640;2023-01-08T07:58:53;3.10;99.90
18884;DHT22;9574;47.282;9.640;2023-01-08T08:01:22;3.10;99.90
18884;DHT22;9574;47.282;9.640;2023-01-08T08:03:50;3.00;99.90
18884;DHT22;9574;47.282;9.640;2023-01-08T08:06:17;3.10;99.90
18884;DHT22;9574;47.282;9.640;2023-01-08T08:08:44;3.00;99.90
18884;DHT22;9574;47.282;9.640;2023-01-08T08:11:11;3.10;99.90
18884;DHT22;9574;47.282;9.640;2023-01-08T08:13:38;3.00;99.90
18884;DHT22;9574;47.282;9.640;2023-01-08T08:16:07;3.10;99.90
18884;DHT22;9574;47.282;9.640;2023-01-08T08:18:35;3.30;99.90
18884;DHT22;9574;47.282;9.640;2023-01-08T08:21:03;3.30;99.90
18884;DHT22;9574;47.282;9.640;2023-01-08T08:23:31;3.40;99.90
18884;DHT22;9574;47.282;9.640;2023-01-08T08:25:58;3.40;99.90
18884;DHT22;9574;47.282;9.640;2023-01-08T08:28:25;3.50;99.90
18884;DHT22;9574;47.282;9.640;2023-01-08T08:30:52;3.80;99.90
18884;DHT22;9574;47.282;9.640;2023-01-08T08:33:19;3.90;99.90
18884;DHT22;9574;47.282;9.640;2023-01-08T08:35:49;3.70;99.90
18884;DHT22;9574;47.282;9.640;2023-01-08T08:38:16;3.60;99.90
18884;DHT22;9574;47.282;9.640;2023-01-08T08:40:43;3.80;99.90
18884;DHT22;9574;47.282;9.640;2023-01-08T08:43:10;4.00;99.90
18884;DHT22;9574;47.282;9.640;2023-01-08T08:45:37;4.20;99.90
18884;DHT22;9574;47.282;9.640;2023-01-08T08:48:05;4.20;99.90
18884;DHT22;9574;47.282;9.640;2023-01-08T08:50:32;4.20;99.90
18884;DHT22;9574;47.282;9.640;2023-01-08T08:53:02;4.20;99.90
18884;DHT22;9574;47.282;9.640;2023-01-08T08:55:30;4.20;99.90
18884;DHT22;9574;47.282;9.640;2023-01-08T08:58:02;4.10;99.90
18884;DHT22;9574;47.282;9.640;2023-01-08T09:00:30;4.10;99.90
18884;DHT22;9574;47.282;9.640;2023-01-08T09:02:57;4.20;99.90
18884;DHT22;9574;47.282;9.640;2023-01-08T09:05:24;4.20;99.90
18884;DHT22;9574;47.282;9.640;2023-01-08T09:07:51;4.40;99.90
18884;DHT22;9574;47.282;9.640;2023-01-08T09:10:20;4.50;99.90
18884;DHT22;9574;47.282;9.640;2023-01-08T09:12:47;4.60;99.90
18884;DHT22;9574;47.282;9.640;2023-01-08T09:15:14;4.50;99.90
18884;DHT22;9574;47.282;9.640;2023-01-08T09:17:41;4.60;99.90
18884;DHT22;9574;47.282;9.640;2023-01-08T09:20:09;4.60;99.90
18884;DHT22;9574;47.282;9.640;2023-01-08T09:22:36;4.60;99.90
18884;DHT22;9574;47.282;9.640;2023-01-08T09:25:04;4.70;99.90
18884;DHT22;9574;47.282;9.640;2023-01-08T09:27:32;4.80;99.90
18884;DHT22;9574;47.282;9.640;2023-01-08T09:29:59;4.80;99.90
18884;DHT22;9574;47.282;9.640;2023-01-08T09:32:26;4.90;99.90
18884;DHT22;9574;47.282;9.640;2023-01-08T09:34:53;4.60;99.90
18884;DHT22;9574;47.282;9.640;2023-01-08T09:37:20;4.50;99.90
18884;DHT22;9574;47.282;9.640;2023-01-08T09:39:48;4.40;99.90
18884;DHT22;9574;47.282;9.640;2023-01-08T09:42:15;4.30;99.90
18884;DHT22;9574;47.282;9.640;2023-01-08T09:44:49;4.40;99.90
18884;DHT22;9574;47.282;9.640;2023-01-08T09:47:24;4.40;99.90
18884;DHT22;9574;47.282;9.640;2023-01-08T09:49:54;4.50;99.90
18884;DHT22;9574;47.282;9.640;2023-01-08T09:52:23;4.70;99.90
18884;DHT22;9574;47.282;9.640;2023-01-08T09:54:50;4.80;99.90
18884;DHT22;9574;47.282;9.640;2023-01-08T09:57:19;4.80;99.90
18884;DHT22;9574;47.282;9.640;2023-01-08T09:59:48;4.80;99.90
18884;DHT22;9574;47.282;9.640;2023-01-08T10:02:16;5.00;99.90
18884;DHT22;9574;47.282;9.640;2023-01-08T10:04:44;5.00;99.90
18884;DHT22;9574;47.282;9.640;2023-01-08T10:07:16;5.10;99.90
18884;DHT22;9574;47.282;9.640;2023-01-08T10:09:46;5.20;99.90
18884;DHT22;9574;47.282;9.640;2023-01-08T10:12:15;5.30;99.90
18884;DHT22;9574;47.282;9.640;2023-01-08T10:14:44;5.40;99.90
18884;DHT22;9574;47.282;9.640;2023-01-08T10:17:27;5.40;99.90
18884;DHT22;9574;47.282;9.640;2023-01-08T10:19:56;5.30;99.90
18884;DHT22;9574;47.282;9.640;2023-01-08T10:22:24;5.30;99.90
18884;DHT22;9574;47.282;9.640;2023-01-08T10:25:04;5.40;99.90
18884;DHT22;9574;47.282;9.640;2023-01-08T10:27:35;5.40;99.90
18884;DHT22;9574;47.282;9.640;2023-01-08T10:30:06;5.30;99.90
18884;DHT22;9574;47.282;9.640;2023-01-08T10:32:36;5.20;99.90
18884;DHT22;9574;47.282;9.640;2023-01-08T10:35:04;5.20;99.90
18884;DHT22;9574;47.282;9.640;2023-01-08T10:37:37;5.30;99.90
18884;DHT22;9574;47.282;9.640;2023-01-08T10:40:16;5.30;99.90
18884;DHT22;9574;47.282;9.640;2023-01-08T10:42:46;5.30;99.90
18884;DHT22;9574;47.282;9.640;2023-01-08T10:45:19;5.40;99.90
18884;DHT22;9574;47.282;9.640;2023-01-08T10:47:51;5.50;99.90
18884;DHT22;9574;47.282;9.640;2023-01-08T10:50:22;5.50;99.90
18884;DHT22;9574;47.282;9.640;2023-01-08T10:52:54;5.50;99.90
18884;DHT22;9574;47.282;9.640;2023-01-08T10:55:24;5.60;99.90
18884;DHT22;9574;47.282;9.640;2023-01-08T10:57:54;5.60;99.90
18884;DHT22;9574;47.282;9.640;2023-01-08T11:00:27;5.50;99.90
18884;DHT22;9574;47.282;9.640;2023-01-08T11:02:59;5.40;99.90
18884;DHT22;9574;47.282;9.640;2023-01-08T11:05:31;5.50;99.90
18884;DHT22;9574;47.282;9.640;2023-01-08T11:07:59;5.50;99.90
18884;DHT22;9574;47.282;9.640;2023-01-08T11:10:28;5.50;99.90
18884;DHT22;9574;47.282;9.640;2023-01-08T11:12:57;5.50;99.90
18884;DHT22;9574;47.282;9.640;2023-01-08T11:15:30;5.60;99.90
18884;DHT22;9574;47.282;9.640;2023-01-08T11:18:16;5.60;99.90
18884;DHT22;9574;47.282;9.640;2023-01-08T11:20:44;5.50;99.90
18884;DHT22;9574;47.282;9.640;2023-01-08T11:23:15;5.50;99.90
18884;DHT22;9574;47.282;9.640;2023-01-08T11:25:46;5.50;99.90
18884;DHT22;9574;47.282;9.640;2023-01-08T11:28:18;5.50;99.90
18884;DHT22;9574;47.282;9.640;2023-01-08T11:30:53;5.40;99.90
18884;DHT22;9574;47.282;9.640;2023-01-08T11:33:24;5.50;99.90
18884;DHT22;9574;47.282;9.640;2023-01-08T11:35:57;5.50;99.90
18884;DHT22;9574;47.282;9.640;2023-01-08T11:38:26;5.60;99.90
18884;DHT22;9574;47.282;9.640;2023-01-08T11:40:58;5.60;99.90
18884;DHT22;9574;47.282;9.640;2023-01-08T11:43:39;5.60;99.90
18884;DHT22;9574;47.282;9.640;2023-01-08T11:46:23;5.60;99.90
18884;DHT22;9574;47.282;9.640;2023-01-08T11:52:07;5.70;99.90
18884;DHT22;9574;47.282;9.640;2023-01-08T11:54:52;5.60;99.90
18884;DHT22;9574;47.282;9.640;2023-01-08T11:57:33;5.50;99.90
18884;DHT22;9574;47.282;9.640;2023-01-08T12:00:14;5.50;99.90
18884;DHT22;9574;47.282;9.640;2023-01-08T12:02:50;5.50;99.90
18884;DHT22;9574;47.282;9.640;2023-01-08T12:05:26;5.50;99.90
18884;DHT22;9574;47.282;9.640;2023-01-08T12:08:03;5.60;99.90
18884;DHT22;9574;47.282;9.640;2023-01-08T12:10:48;5.60;99.90
18884;DHT22;9574;47.282;9.640;2023-01-08T12:13:29;5.70;99.90
18884;DHT22;9574;47.282;9.640;2023-01-08T12:16:10;5.60;99.90
18884;DHT22;9574;47.282;9.640;2023-01-08T12:19:01;5.50;99.90
18884;DHT22;9574;47.282;9.640;2023-01-08T12:21:32;5.50;99.90
18884;DHT22;9574;47.282;9.640;2023-01-08T12:24:10;5.40;99.90
18884;DHT22;9574;47.282;9.640;2023-01-08T12:26:44;5.50;99.90
18884;DHT22;9574;47.282;9.640;2023-01-08T12:29:46;5.50;99.90
18884;DHT22;9574;47.282;9.640;2023-01-08T12:32:23;5.60;99.90
18884;DHT22;9574;47.282;9.640;2023-01-08T12:34:59;5.80;99.90
18884;DHT22;9574;47.282;9.640;2023-01-08T12:37:33;6.00;99.90
18884;DHT22;9574;47.282;9.640;2023-01-08T12:40:13;6.10;99.90
18884;DHT22;9574;47.282;9.640;2023-01-08T12:42:43;6.20;99.90
18884;DHT22;9574;47.282;9.640;2023-01-08T12:45:17;6.40;99.90
18884;DHT22;9574;47.282;9.640;2023-01-08T12:47:49;6.50;99.90
18884;DHT22;9574;47.282;9.640;2023-01-08T12:50:31;6.50;99.90
18884;DHT22;9574;47.282;9.640;2023-01-08T12:53:05;6.60;99.90
18884;DHT22;9574;47.282;9.640;2023-01-08T12:55:41;6.60;99.90
18884;DHT22;9574;47.282;9.640;2023-01-08T12:58:19;6.70;99.90
18884;DHT22;9574;47.282;9.640;2023-01-08T13:00:53;6.80;99.90
18884;DHT22;9574;47.282;9.640;2023-01-08T13:03:24;6.80;99.90
18884;DHT22;9574;47.282;9.640;2023-01-08T13:06:02;6.90;99.90
18884;DHT22;9574;47.282;9.640;2023-01-08T13:08:33;6.90;99.90
18884;DHT22;9574;47.282;9.640;2023-01-08T13:11:02;6.90;99.90
18884;DHT22;9574;47.282;9.640;2023-01-08T13:13:32;6.80;99.90
18884;DHT22;9574;47.282;9.640;2023-01-08T13:16:07;6.80;99.90
18884;DHT22;9574;47.282;9.640;2023-01-08T13:18:49;6.80;99.90
18884;DHT22;9574;47.282;9.640;2023-01-08T13:21:18;6.70;99.90
18884;DHT22;9574;47.282;9.640;2023-01-08T13:24:19;6.70;99.90
18884;DHT22;9574;47.282;9.640;2023-01-08T13:26:49;6.60;99.90
18884;DHT22;9574;47.282;9.640;2023-01-08T13:29:25;6.50;99.90
18884;DHT22;9574;47.282;9.640;2023-01-08T13:31:52;6.50;99.90
18884;DHT22;9574;47.282;9.640;2023-01-08T13:34:22;6.50;99.90
18884;DHT22;9574;47.282;9.640;2023-01-08T13:36:59;6.60;99.90
18884;DHT22;9574;47.282;9.640;2023-01-08T13:39:34;6.60;99.90
18884;DHT22;9574;47.282;9.640;2023-01-08T13:42:03;6.60;99.90
18884;DHT22;9574;47.282;9.640;2023-01-08T13:44:48;6.70;99.90
18884;DHT22;9574;47.282;9.640;2023-01-08T13:47:21;6.70;99.90
18884;DHT22;9574;47.282;9.640;2023-01-08T13:49:50;6.60;99.90
18884;DHT22;9574;47.282;9.640;2023-01-08T13:52:35;6.70;99.90
18884;DHT22;9574;47.282;9.640;2023-01-08T13:55:13;6.70;99.90
18884;DHT22;9574;47.282;9.640;2023-01-08T13:57:44;6.70;99.90
18884;DHT22;9574;47.282;9.640;2023-01-08T14:00:20;6.80;99.90
18884;DHT22;9574;47.282;9.640;2023-01-08T14:02:48;6.90;99.90
18884;DHT22;9574;47.282;9.640;2023-01-08T14:05:22;7.00;99.90
18884;DHT22;9574;47.282;9.640;2023-01-08T14:07:49;7.10;99.90
18884;DHT22;9574;47.282;9.640;2023-01-08T14:10:18;7.20;99.90
18884;DHT22;9574;47.282;9.640;2023-01-08T14:12:46;7.30;99.90
18884;DHT22;9574;47.282;9.640;2023-01-08T14:15:22;7.40;99.90
18884;DHT22;9574;47.282;9.640;2023-01-08T14:17:51;7.40;99.90
18884;DHT22;9574;47.282;9.640;2023-01-08T14:20:30;7.50;99.90
18884;DHT22;9574;47.282;9.640;2023-01-08T14:22:59;7.50;99.90
18884;DHT22;9574;47.282;9.640;2023-01-08T14:25:28;7.60;99.90
18884;DHT22;9574;47.282;9.640;2023-01-08T14:28:00;7.70;99.90
18884;DHT22;9574;47.282;9.640;2023-01-08T14:30:28;7.80;99.90
18884;DHT22;9574;47.282;9.640;2023-01-08T14:32:56;7.80;99.90
18884;DHT22;9574;47.282;9.640;2023-01-08T14:35:30;7.80;99.90
18884;DHT22;9574;47.282;9.640;2023-01-08T14:37:59;7.70;99.90
18884;DHT22;9574;47.282;9.640;2023-01-08T14:40:31;7.70;99.90
18884;DHT22;9574;47.282;9.640;2023-01-08T14:43:05;7.80;99.90
18884;DHT22;9574;47.282;9.640;2023-01-08T14:45:32;8.00;99.90
18884;DHT22;9574;47.282;9.640;2023-01-08T14:48:08;8.10;99.90
18884;DHT22;9574;47.282;9.640;2023-01-08T14:50:37;8.90;99.90
18884;DHT22;9574;47.282;9.640;2023-01-08T14:53:07;9.90;99.90
18884;DHT22;9574;47.282;9.640;2023-01-08T14:55:41;10.70;99.90
18884;DHT22;9574;47.282;9.640;2023-01-08T14:58:14;11.40;99.90
18884;DHT22;9574;47.282;9.640;2023-01-08T15:00:42;11.70;99.90
18884;DHT22;9574;47.282;9.640;2023-01-08T15:03:33;11.50;99.90
18884;DHT22;9574;47.282;9.640;2023-01-08T15:06:01;11.10;99.90
18884;DHT22;9574;47.282;9.640;2023-01-08T15:08:33;10.70;99.90
18884;DHT22;9574;47.282;9.640;2023-01-08T15:11:03;10.00;99.90
18884;DHT22;9574;47.282;9.640;2023-01-08T15:13:32;9.50;99.90
18884;DHT22;9574;47.282;9.640;2023-01-08T15:16:04;9.10;99.90
18884;DHT22;9574;47.282;9.640;2023-01-08T15:18:43;8.50;99.90
18884;DHT22;9574;47.282;9.640;2023-01-08T15:21:16;8.30;99.90
18884;DHT22;9574;47.282;9.640;2023-01-08T15:23:47;8.10;99.90
18884;DHT22;9574;47.282;9.640;2023-01-08T15:26:16;7.80;99.90
18884;DHT22;9574;47.282;9.640;2023-01-08T15:28:48;7.30;99.90
18884;DHT22;9574;47.282;9.640;2023-01-08T15:31:25;7.00;99.90
18884;DHT22;9574;47.282;9.640;2023-01-08T15:33:52;6.70;99.90
18884;DHT22;9574;47.282;9.640;2023-01-08T15:36:19;6.50;99.90
18884;DHT22;9574;47.282;9.640;2023-01-08T15:38:47;6.50;99.90
18884;DHT22;9574;47.282;9.640;2023-01-08T15:41:18;6.30;99.90
18884;DHT22;9574;47.282;9.640;2023-01-08T15:44:06;6.20;99.90
18884;DHT22;9574;47.282;9.640;2023-01-08T15:46:33;6.10;99.90
18884;DHT22;9574;47.282;9.640;2023-01-08T15:48:59;6.00;99.90
18884;DHT22;9574;47.282;9.640;2023-01-08T15:51:27;6.10;99.90
18884;DHT22;9574;47.282;9.640;2023-01-08T15:53:55;6.10;99.90
18884;DHT22;9574;47.282;9.640;2023-01-08T15:56:23;6.20;99.90
18884;DHT22;9574;47.282;9.640;2023-01-08T15:58:50;6.30;99.90
18884;DHT22;9574;47.282;9.640;2023-01-08T16:01:17;6.30;99.90
18884;DHT22;9574;47.282;9.640;2023-01-08T16:03:44;6.30;99.90
18884;DHT22;9574;47.282;9.640;2023-01-08T16:06:11;6.10;99.90
18884;DHT22;9574;47.282;9.640;2023-01-08T16:08:38;5.90;99.90
18884;DHT22;9574;47.282;9.640;2023-01-08T16:11:10;6.00;99.90
18884;DHT22;9574;47.282;9.640;2023-01-08T16:13:39;6.00;99.90
18884;DHT22;9574;47.282;9.640;2023-01-08T16:16:07;5.90;99.90
18884;DHT22;9574;47.282;9.640;2023-01-08T16:18:35;5.90;99.90
18884;DHT22;9574;47.282;9.640;2023-01-08T16:21:02;5.90;99.90
18884;DHT22;9574;47.282;9.640;2023-01-08T16:23:29;5.90;99.90